Airfield :
LOGIN :

Register | Disclaimer

   EN    FR    IT 

 










Legend :    VFR   Marginal VFR   IFR   Intensive IFR   Very Intensive IFR
Visi :
Ceiling :
>= 8 km
>= 3000ft
5 to 8 km
1000 to 3000 ft
1500m to 5 km
500 to 1000 ft
800 to 1500m
200 to 500 ft
< 800m
< 200 ft
Symbols :   Thunderstorms  Fog  Heavy snow  Heavy precipitations  Wind > 20 kt
SIGMETs :     Misc.  Thunderstorms  Icing  Turbulence  Mountain Waves  Volcanic Ashes







- Airport Elevation : 1260 ft
- IATA code : LDE
- Download approach charts


LFBT - Tarbes / Ossun

CURRENT METAR :
  • 270300Z AUTO 13005KT 9999 OVC068 03/02 Q1016 NOSIG

EXPIRED METARs :
  • 270230Z AUTO 16007KT 9999 -DZ FEW045 OVC068 04/02 Q1016 NOSIG
  • 270200Z AUTO 17006KT 9999 -RA FEW010 SCT036 OVC042 04/02 Q1016 NOSIG
  • 270130Z AUTO 07003KT 040V140 6000 -RA SCT017 BKN024 OVC032 04/03 Q1016 NOSIG
  • 270100Z AUTO 14006KT 110V170 9999 -RA FEW027 BKN036 OVC047 05/03 Q1016 NOSIG
  • 270030Z AUTO 14005KT 9999 -DZ SCT028 BKN035 BKN056 05/03 Q1016 NOSIG

TAF TAF LFBT
Valid from the 27 at 00:00 until the 28 at 00:00 UTC


262300Z 2700/2724 22005KT 9999 SCT025 BKN040
BECMG 2708/2710 31010KT SCT035TCU BKN060
PROB40
TEMPO 2712/2722 4000 SHRA
No reported NOTAMs for that airfield.
2 SIGMETs reported for the Bordeaux FIR (LFBB) :
 
Severe turbulence
LFBB SIGMET 2 VALID 262300/270300 LFPW
LFBB BORDEAUX FIR/UIR SEV TURB FCST WI N4530 E00300 - N4400 W00100 - N4645 E00245 FL140/230 STNR NC=
Severe turbulence
LFBB SIGMET 1 VALID 270300/270700 LFPW
LFBB BORDEAUX FIR/UIR SEV TURB FCST WI N4630 E00300 - N4515 E00245 - N4415 E00030 - N4500 W00015 FL140/220 STNR NC=



MET'MAP, your aeronautical weather chart ! - Copyright ORBIFLY December 2007 - Disclaimer

ORBIFLY MET'MAP TEAM :

Programming & Development : Alexandra Zaïnal
Concept & Development : Baudouin d'Aumeries
Co-Development & Prog : Marc-Olivier Méhu
Technical & hardware support : Manuel Goepfert

Contact : metmap@orbifly.com




SOURCES & CREDITS :

   NOAA